Terminal Aerodrome Forecast
Issued by NWS

Home | Current Version | Previous Version | Text Only | Print | Product List | Glossary On
Versions: 1 2 3 4 5 6 7 8 9 10 11 12 13 14 15
000
FTUS43 KILX 130500
TAFBMI
TAF
KBMI 130535Z 1306/1406 23010KT P6SM -RA VCTS SCT002 SCT040CB BKN100
      TEMPO 1306/1310 VRB20G35KT 2SM TSRA BR BKN030CB
     FM131200 26007KT 5SM BR BKN100
     FM131500 30009KT P6SM SCT040
     FM140000 30005KT P6SM FEW030=

USA.gov is the U.S. government's official web portal to all federal, state and local government web resources and services.